Time;durP1;ratioP1;P1;durP2;ratioP2;P2;SDS_P1;SDS_P2;PMS_P1;PMS_P2;Temp;Humidity;BMP_temperature;BMP_pressure;BME280_temperature;BME280_humidity;BME280_pressure;Samples;Min_cycle;Max_cycle;Signal;HPM_P1;HPM_P2
2022/03/11 00:01:12;;;;;;;18.20;10.52;;;6.70;74.40;;;;;;5070954;28;20037;-79
2022/03/11 00:03:37;;;;;;;14.85;10.18;;;6.70;74.40;;;;;;5069900;28;20123;-77
2022/03/11 00:06:03;;;;;;;17.67;9.95;;;6.60;74.30;;;;;;5035506;28;20122;-79
2022/03/11 00:08:28;;;;;;;17.42;11.10;;;6.60;74.80;;;;;;5050808;28;20048;-79
2022/03/11 00:10:54;;;;;;;18.30;10.48;;;6.60;75.10;;;;;;5050582;28;20048;-79
2022/03/11 00:13:20;;;;;;;18.25;10.32;;;6.50;75.40;;;;;;5050550;28;20045;-79
2022/03/11 00:15:45;;;;;;;18.23;10.63;;;6.50;75.50;;;;;;5033303;28;20045;-79
2022/03/11 00:18:11;;;;;;;16.50;11.10;;;6.40;76.20;;;;;;5050093;28;20076;-78
2022/03/11 00:20:37;;;;;;;16.60;10.05;;;6.40;76.40;;;;;;5034156;28;20037;-79
2022/03/11 00:23:02;;;;;;;14.45;9.27;;;6.30;76.50;;;;;;5050437;28;20051;-79
2022/03/11 00:25:31;;;;;;;15.00;9.70;;;6.30;76.60;;;;;;5051495;28;20049;-80
2022/03/11 00:27:59;;;;;;;16.90;9.73;;;6.30;77.20;;;;;;5051545;28;20051;-79
2022/03/11 00:30:25;;;;;;;15.77;9.82;;;6.20;77.50;;;;;;5050180;28;20410;-79
2022/03/11 00:32:50;;;;;;;18.58;9.52;;;6.20;77.70;;;;;;5050342;28;20029;-79
2022/03/11 00:35:16;;;;;;;16.85;10.07;;;6.10;78.00;;;;;;5050187;28;20469;-80
2022/03/11 00:37:42;;;;;;;14.63;9.65;;;6.10;78.60;;;;;;5049963;28;20047;-79
2022/03/11 00:40:08;;;;;;;14.95;9.45;;;6.00;78.70;;;;;;5049750;28;20052;-80
2022/03/11 00:42:34;;;;;;;15.73;9.40;;;6.00;79.00;;;;;;5049839;28;20120;-80
2022/03/11 00:45:00;;;;;;;14.70;9.23;;;6.00;79.40;;;;;;5050147;28;20187;-80
2022/03/11 00:47:26;;;;;;;16.35;9.13;;;6.00;79.40;;;;;;5050079;28;20079;-80
2022/03/11 00:49:52;;;;;;;15.80;10.02;;;5.90;80.00;;;;;;5049926;28;20045;-80
2022/03/11 00:52:18;;;;;;;13.10;8.30;;;5.90;80.50;;;;;;5049780;28;20049;-80
2022/03/11 00:54:43;;;;;;;17.17;10.38;;;5.90;80.70;;;;;;5049278;28;20040;-80
2022/03/11 00:57:09;;;;;;;18.33;9.40;;;5.80;80.60;;;;;;5049817;28;20048;-80
2022/03/11 00:59:35;;;;;;;15.18;8.52;;;5.80;81.20;;;;;;5049822;28;20044;-80
2022/03/11 01:02:00;;;;;;;15.57;8.75;;;5.80;81.30;;;;;;5033314;28;20047;-80
2022/03/11 01:04:26;;;;;;;15.73;9.27;;;5.70;82.00;;;;;;5033184;28;20040;-80
2022/03/11 01:06:51;;;;;;;17.38;8.88;;;5.70;82.00;;;;;;5051224;28;20037;-80
2022/03/11 01:09:17;;;;;;;13.77;8.60;;;5.70;82.70;;;;;;5033159;28;20124;-80
2022/03/11 01:11:43;;;;;;;14.30;8.80;;;5.70;82.40;;;;;;5049690;28;20072;-80
2022/03/11 01:14:08;;;;;;;15.57;9.48;;;5.70;83.10;;;;;;5049763;28;20106;-80
2022/03/11 01:16:34;;;;;;;13.55;8.50;;;5.60;83.60;;;;;;5049741;28;20409;-80
2022/03/11 01:19:00;;;;;;;14.38;8.05;;;5.60;83.60;;;;;;5049338;28;20079;-80
2022/03/11 01:21:26;;;;;;;13.80;8.00;;;5.60;84.00;;;;;;5049723;28;20033;-80
2022/03/11 01:23:53;;;;;;;15.13;8.10;;;5.60;84.70;;;;;;5033411;28;20036;-80
2022/03/11 01:26:19;;;;;;;15.68;9.00;;;5.60;85.10;;;;;;5051383;28;20045;-80
2022/03/11 01:28:45;;;;;;;15.05;8.52;;;5.50;85.30;;;;;;5053515;28;20047;-80
2022/03/11 01:31:12;;;;;;;15.30;8.93;;;5.50;85.70;;;;;;5053536;28;20120;-80
2022/03/11 01:33:42;;;;;;;15.18;8.13;;;5.50;86.00;;;;;;5053521;28;20045;-80
2022/03/11 01:36:09;;;;;;;12.77;8.35;;;5.40;86.90;;;;;;5053948;28;20557;-80
2022/03/11 01:38:35;;;;;;;15.18;8.70;;;5.40;86.80;;;;;;5036429;28;20120;-80
2022/03/11 01:41:00;;;;;;;12.68;8.10;;;5.40;87.30;;;;;;5053250;28;20084;-80
2022/03/11 01:43:27;;;;;;;14.40;7.93;;;5.40;88.20;;;;;;5037062;28;20045;-80
2022/03/11 01:45:53;;;;;;;14.95;8.32;;;5.40;88.20;;;;;;5053221;28;20052;-80
2022/03/11 01:48:19;;;;;;;14.20;7.80;;;5.30;88.90;;;;;;5053084;28;20044;-80
2022/03/11 01:50:44;;;;;;;17.25;9.10;;;5.30;89.00;;;;;;5053387;28;20041;-80
2022/03/11 01:53:12;;;;;;;15.00;8.98;;;5.30;89.10;;;;;;5036520;28;20041;-80
2022/03/11 01:55:39;;;;;;;15.25;8.43;;;5.30;89.70;;;;;;5051975;28;20037;-80
2022/03/11 01:58:06;;;;;;;14.88;8.55;;;5.30;90.00;;;;;;5053024;28;20033;-80
2022/03/11 02:00:38;;;;;;;16.13;8.57;;;5.20;90.20;;;;;;5052843;28;20087;-80
2022/03/11 02:03:05;;;;;;;16.77;8.90;;;5.20;90.10;;;;;;5052943;28;20067;-80
2022/03/11 02:05:30;;;;;;;14.25;7.97;;;5.20;90.70;;;;;;5053043;28;20040;-80
2022/03/11 02:07:58;;;;;;;16.67;8.20;;;5.20;90.60;;;;;;5036309;28;20400;-80
2022/03/11 02:10:25;;;;;;;15.10;8.38;;;5.20;90.70;;;;;;5052936;28;20445;-80
2022/03/11 02:12:51;;;;;;;15.05;8.85;;;5.20;91.10;;;;;;5036191;28;20516;-80
2022/03/11 02:15:16;;;;;;;15.90;8.93;;;5.10;91.20;;;;;;5053299;28;20127;-80
2022/03/11 02:17:42;;;;;;;19.40;9.40;;;5.10;91.50;;;;;;5052497;28;20512;-80
2022/03/11 02:20:08;;;;;;;16.50;9.68;;;5.10;91.70;;;;;;5052491;28;20098;-80
2022/03/11 02:22:36;;;;;;;17.48;9.38;;;5.10;91.70;;;;;;5052447;28;20417;-80
2022/03/11 02:25:06;;;;;;;16.05;8.32;;;5.10;91.90;;;;;;5052849;28;20037;-80
2022/03/11 02:27:36;;;;;;;16.95;9.15;;;5.10;92.10;;;;;;5036247;28;20052;-80
2022/03/11 02:30:16;;;;;;;15.32;9.80;;;5.00;92.30;;;;;;5052306;28;20048;-80
2022/03/11 02:32:43;;;;;;;17.38;9.60;;;5.00;92.70;;;;;;5035043;28;20037;-80
2022/03/11 02:35:09;;;;;;;15.90;8.93;;;5.00;92.50;;;;;;5035733;28;20037;-80
2022/03/11 02:37:35;;;;;;;17.95;9.20;;;5.00;92.60;;;;;;5051382;28;20041;-80
2022/03/11 02:40:02;;;;;;;15.88;9.60;;;5.00;92.60;;;;;;5051812;28;20044;-80
2022/03/11 02:42:28;;;;;;;18.58;9.93;;;5.00;92.70;;;;;;5052390;28;20098;-80
2022/03/11 02:44:53;;;;;;;17.10;9.63;;;5.00;93.10;;;;;;5036049;28;20037;-80
2022/03/11 02:47:19;;;;;;;17.92;9.82;;;4.90;93.30;;;;;;5052437;28;20532;-80
2022/03/11 02:49:45;;;;;;;15.15;9.00;;;4.90;93.80;;;;;;5035204;28;20044;-80
2022/03/11 02:52:10;;;;;;;16.50;9.35;;;4.90;93.40;;;;;;5052005;28;20406;-80
2022/03/11 02:54:36;;;;;;;18.42;10.43;;;4.90;93.40;;;;;;5051356;28;20044;-80
2022/03/11 02:57:02;;;;;;;17.65;9.70;;;4.90;93.70;;;;;;5052054;28;20524;-80
2022/03/11 02:59:27;;;;;;;18.40;10.23;;;4.90;93.40;;;;;;5051842;28;20045;-80
2022/03/11 03:01:53;;;;;;;18.23;10.05;;;4.90;93.70;;;;;;5051717;28;20594;-80
2022/03/11 03:04:19;;;;;;;17.02;9.77;;;4.90;93.90;;;;;;5035219;28;20406;-80
2022/03/11 03:06:44;;;;;;;16.52;9.90;;;4.80;94.00;;;;;;5051819;28;20127;-80
2022/03/11 03:09:10;;;;;;;15.88;10.30;;;4.80;94.00;;;;;;5051601;28;20037;-80
2022/03/11 03:11:36;;;;;;;19.13;10.40;;;4.80;94.10;;;;;;5052183;28;20565;-80
2022/03/11 03:14:02;;;;;;;17.02;10.38;;;4.80;94.30;;;;;;5051571;28;20467;-80
2022/03/11 03:16:28;;;;;;;17.50;10.63;;;4.70;94.60;;;;;;5051744;28;20037;-80
2022/03/11 03:18:53;;;;;;;21.10;10.43;;;4.70;94.50;;;;;;5051285;28;20064;-80
2022/03/11 03:21:19;;;;;;;18.15;10.60;;;4.70;94.80;;;;;;5051664;28;20533;-80
2022/03/11 03:23:45;;;;;;;20.58;11.38;;;4.70;94.50;;;;;;5051638;28;20102;-80
2022/03/11 03:26:11;;;;;;;18.27;10.68;;;4.70;94.50;;;;;;5051467;28;20076;-80
2022/03/11 03:28:37;;;;;;;17.10;10.32;;;4.70;94.60;;;;;;5051321;28;20498;-80
2022/03/11 03:31:02;;;;;;;18.83;10.32;;;4.60;94.60;;;;;;5051704;28;20154;-80
2022/03/11 03:33:28;;;;;;;19.73;10.98;;;4.60;94.60;;;;;;5051176;28;20076;-80
2022/03/11 03:35:54;;;;;;;19.10;11.45;;;4.60;94.90;;;;;;5051487;28;20033;-80
2022/03/11 03:38:20;;;;;;;19.20;11.07;;;4.60;95.00;;;;;;5034859;28;20494;-80
2022/03/11 03:40:45;;;;;;;21.05;11.48;;;4.60;95.30;;;;;;5050931;28;20510;-80
2022/03/11 03:43:11;;;;;;;19.35;11.10;;;4.60;95.50;;;;;;5050769;28;20047;-79
2022/03/11 03:45:36;;;;;;;19.45;11.15;;;4.50;95.80;;;;;;5051159;28;20494;-79
2022/03/11 03:48:02;;;;;;;19.23;11.02;;;4.50;95.50;;;;;;5050675;28;20041;-78
2022/03/11 03:50:29;;;;;;;19.17;11.18;;;4.50;95.50;;;;;;5050677;28;20052;-79
2022/03/11 03:52:54;;;;;;;19.58;12.07;;;4.50;95.60;;;;;;5050691;28;20047;-79
2022/03/11 03:55:20;;;;;;;22.65;11.60;;;4.50;95.60;;;;;;5034324;28;20037;-79
2022/03/11 03:57:46;;;;;;;22.33;12.52;;;4.50;95.60;;;;;;5034239;28;20120;-79
2022/03/11 04:00:12;;;;;;;19.25;11.90;;;4.40;95.80;;;;;;5034203;28;20126;-79
2022/03/11 04:02:44;;;;;;;19.20;12.00;;;4.40;96.00;;;;;;5050322;28;20630;-79
2022/03/11 04:05:12;;;;;;;25.17;12.25;;;4.40;96.30;;;;;;5051070;28;20045;-79
2022/03/11 04:07:39;;;;;;;19.88;12.05;;;4.40;96.00;;;;;;5033951;28;20041;-79
2022/03/11 04:10:05;;;;;;;21.75;12.77;;;4.40;96.00;;;;;;5050267;28;20060;-79
2022/03/11 04:12:32;;;;;;;20.88;12.20;;;4.30;96.10;;;;;;5034235;28;20040;-79
2022/03/11 04:14:57;;;;;;;19.75;11.98;;;4.30;96.20;;;;;;5050636;28;20079;-79
2022/03/11 04:17:23;;;;;;;26.15;12.52;;;4.30;96.10;;;;;;5050447;28;20072;-79
2022/03/11 04:19:49;;;;;;;19.58;12.52;;;4.30;96.30;;;;;;5050075;28;20421;-78
2022/03/11 04:22:15;;;;;;;20.00;11.88;;;4.20;96.50;;;;;;5050313;28;20041;-79
2022/03/11 04:24:41;;;;;;;21.55;12.38;;;4.20;96.70;;;;;;5034234;28;20076;-79
2022/03/11 04:27:06;;;;;;;19.67;12.27;;;4.20;96.70;;;;;;5050231;28;20045;-79
2022/03/11 04:29:32;;;;;;;21.92;12.52;;;4.20;96.50;;;;;;5050284;28;20230;-79
2022/03/11 04:31:58;;;;;;;22.50;14.13;;;4.20;96.60;;;;;;5049875;28;20573;-79
2022/03/11 04:34:24;;;;;;;22.05;13.60;;;4.20;96.80;;;;;;5050271;28;20041;-79
2022/03/11 04:36:49;;;;;;;23.05;13.15;;;4.10;97.10;;;;;;5050316;28;20044;-79
2022/03/11 04:39:15;;;;;;;21.88;12.68;;;4.10;96.80;;;;;;5049778;28;20445;-79
2022/03/11 04:41:42;;;;;;;20.75;12.88;;;4.10;97.00;;;;;;5050025;28;20132;-79
2022/03/11 04:44:08;;;;;;;22.02;12.98;;;4.10;97.10;;;;;;5033746;28;20060;-79
2022/03/11 04:46:33;;;;;;;22.88;12.90;;;4.00;97.00;;;;;;5050045;28;20418;-79
2022/03/11 04:48:59;;;;;;;21.75;13.50;;;4.00;97.30;;;;;;5050091;28;20044;-79
2022/03/11 04:51:25;;;;;;;23.88;13.35;;;4.00;97.30;;;;;;5033492;28;20052;-79
2022/03/11 04:53:51;;;;;;;24.02;13.55;;;4.00;97.80;;;;;;5048728;28;20120;-78
2022/03/11 04:56:16;;;;;;;22.98;13.50;;;4.00;97.40;;;;;;5050021;28;20079;-79
2022/03/11 04:58:42;;;;;;;23.20;13.65;;;4.00;97.30;;;;;;5032905;28;20037;-79
2022/03/11 05:01:08;;;;;;;23.48;13.40;;;4.00;97.20;;;;;;5053776;28;20045;-79
2022/03/11 05:03:34;;;;;;;22.92;13.55;;;4.00;97.10;;;;;;5056405;28;20495;-79
2022/03/11 05:06:00;;;;;;;26.33;14.93;;;4.00;97.00;;;;;;5056519;28;20142;-79
2022/03/11 05:08:26;;;;;;;23.73;14.18;;;4.00;97.30;;;;;;5056613;28;20072;-79
2022/03/11 05:10:51;;;;;;;24.02;14.40;;;4.00;97.10;;;;;;5056223;28;20037;-79
2022/03/11 05:13:17;;;;;;;24.70;14.32;;;3.90;97.50;;;;;;5056472;28;20138;-79
2022/03/11 05:15:44;;;;;;;24.75;13.65;;;3.90;97.50;;;;;;5056454;28;20123;-78
2022/03/11 05:18:11;;;;;;;25.25;14.70;;;3.90;97.60;;;;;;5056503;28;20045;-79
2022/03/11 05:20:37;;;;;;;25.00;15.25;;;3.90;97.70;;;;;;5053591;28;20070;-80
2022/03/11 05:23:03;;;;;;;23.95;14.10;;;3.90;97.50;;;;;;5055552;28;20072;-80
2022/03/11 05:25:28;;;;;;;24.83;14.60;;;3.80;97.80;;;;;;5055679;28;20130;-80
2022/03/11 05:27:54;;;;;;;25.35;15.38;;;3.80;97.60;;;;;;5055710;28;20095;-80
2022/03/11 05:30:20;;;;;;;26.23;15.55;;;3.80;97.70;;;;;;5039158;28;20449;-79
2022/03/11 05:32:46;;;;;;;26.17;14.98;;;3.80;97.60;;;;;;5039085;28;20495;-80
2022/03/11 05:35:14;;;;;;;23.63;14.65;;;3.70;97.70;;;;;;5055756;28;20115;-80
2022/03/11 05:37:39;;;;;;;26.08;15.52;;;3.70;97.90;;;;;;5055562;28;20041;-80
2022/03/11 05:40:06;;;;;;;25.05;15.35;;;3.70;98.00;;;;;;5054617;28;20114;-78
2022/03/11 05:42:32;;;;;;;24.08;14.50;;;3.70;98.50;;;;;;5051302;28;20530;-79
2022/03/11 05:44:57;;;;;;;23.67;15.25;;;3.60;98.00;;;;;;5056575;28;20053;-79
2022/03/11 05:47:23;;;;;;;25.60;14.75;;;3.60;98.00;;;;;;5039411;28;20051;-79
2022/03/11 05:49:49;;;;;;;24.80;14.77;;;3.60;98.40;;;;;;5056041;28;20098;-80
2022/03/11 05:52:14;;;;;;;23.17;14.45;;;3.60;98.20;;;;;;5055539;28;20037;-79
2022/03/11 05:54:40;;;;;;;25.60;15.25;;;3.50;98.30;;;;;;5055307;28;20041;-79
2022/03/11 05:57:06;;;;;;;24.95;15.30;;;3.50;98.10;;;;;;5039090;28;20044;-80
2022/03/11 05:59:32;;;;;;;24.90;14.85;;;3.50;98.20;;;;;;5038830;28;20045;-80
2022/03/11 06:01:58;;;;;;;23.15;14.30;;;3.50;98.20;;;;;;5055713;28;20190;-80
2022/03/11 06:04:24;;;;;;;27.30;14.77;;;3.50;98.20;;;;;;5038818;28;20494;-80
2022/03/11 06:06:50;;;;;;;25.23;15.02;;;3.50;98.20;;;;;;5038827;28;20040;-80
2022/03/11 06:09:16;;;;;;;23.13;14.13;;;3.50;98.20;;;;;;5058800;28;20036;-79
2022/03/11 06:11:42;;;;;;;25.35;15.48;;;3.50;98.20;;;;;;5074955;28;20064;-80
2022/03/11 06:14:07;;;;;;;24.73;14.93;;;3.40;98.80;;;;;;5054962;28;20083;-79
2022/03/11 06:16:33;;;;;;;25.92;15.90;;;3.40;98.60;;;;;;5072710;28;20040;-80
2022/03/11 06:18:59;;;;;;;25.27;14.90;;;3.40;98.50;;;;;;5072389;28;20048;-79
2022/03/11 06:21:25;;;;;;;26.58;15.40;;;3.40;98.70;;;;;;5072263;28;20087;-79
2022/03/11 06:23:51;;;;;;;24.42;14.88;;;3.40;98.60;;;;;;5071800;28;20119;-79
2022/03/11 06:26:17;;;;;;;25.33;15.23;;;3.40;98.50;;;;;;5072172;28;20119;-80
2022/03/11 06:28:43;;;;;;;25.38;15.60;;;3.50;98.60;;;;;;5072075;28;20148;-79
2022/03/11 06:31:09;;;;;;;26.30;15.40;;;3.50;98.40;;;;;;5064070;28;20538;-79
2022/03/11 06:33:34;;;;;;;25.30;15.60;;;3.50;98.80;;;;;;5051418;28;20037;-79
2022/03/11 06:36:00;;;;;;;25.30;15.32;;;3.50;98.50;;;;;;5051750;28;20033;-79
2022/03/11 06:38:26;;;;;;;26.17;15.43;;;3.50;98.80;;;;;;5052045;28;20402;-79
2022/03/11 06:40:53;;;;;;;26.52;14.68;;;3.50;98.50;;;;;;5051986;28;20072;-79
2022/03/11 06:43:19;;;;;;;26.42;16.17;;;3.50;98.50;;;;;;5052391;28;20044;-79
2022/03/11 06:45:45;;;;;;;25.80;15.05;;;3.50;98.50;;;;;;5052030;28;20410;-79
2022/03/11 06:48:11;;;;;;;26.55;15.50;;;3.50;98.40;;;;;;5052308;28;20033;-79
2022/03/11 06:50:36;;;;;;;25.83;15.00;;;3.60;98.40;;;;;;5051725;28;20674;-79
2022/03/11 06:53:02;;;;;;;26.35;15.55;;;3.60;98.20;;;;;;5051658;28;20052;-79
2022/03/11 06:55:28;;;;;;;26.33;14.98;;;3.60;98.60;;;;;;5051932;28;20044;-79
2022/03/11 06:57:53;;;;;;;27.92;15.65;;;3.70;98.30;;;;;;5051927;28;20048;-79
2022/03/11 07:00:19;;;;;;;24.20;14.50;;;3.70;98.40;;;;;;5051557;28;20094;-79
2022/03/11 07:02:45;;;;;;;24.92;15.13;;;3.70;98.40;;;;;;5051802;28;20400;-79
2022/03/11 07:05:11;;;;;;;25.73;15.80;;;3.80;98.30;;;;;;5052023;28;20401;-80
2022/03/11 07:07:37;;;;;;;27.88;15.88;;;3.80;98.10;;;;;;5050140;28;20520;-80
2022/03/11 07:10:05;;;;;;;26.17;15.18;;;3.90;97.90;;;;;;5033100;28;20037;-79
2022/03/11 07:12:31;;;;;;;25.08;15.43;;;3.90;98.00;;;;;;5051234;28;20041;-79
2022/03/11 07:14:59;;;;;;;28.38;15.38;;;4.00;97.90;;;;;;5050031;28;20029;-79
2022/03/11 07:17:25;;;;;;;27.33;15.48;;;4.00;97.90;;;;;;5051213;28;20041;-79
2022/03/11 07:19:51;;;;;;;29.80;15.82;;;4.10;97.60;;;;;;5050468;28;20445;-79
2022/03/11 07:22:16;;;;;;;24.80;15.82;;;4.10;97.50;;;;;;5051109;28;20037;-79
2022/03/11 07:24:42;;;;;;;25.98;15.48;;;4.20;97.50;;;;;;5050042;28;20080;-80
2022/03/11 07:27:07;;;;;;;24.38;15.45;;;4.30;97.10;;;;;;5049286;28;20099;-80
2022/03/11 07:29:33;;;;;;;26.15;15.88;;;4.30;97.10;;;;;;5048712;28;20073;-79
2022/03/11 07:31:59;;;;;;;27.05;16.60;;;4.40;97.00;;;;;;5032699;28;20705;-80
2022/03/11 07:34:26;;;;;;;24.73;14.35;;;4.50;96.60;;;;;;5049569;28;20041;-80
2022/03/11 07:36:52;;;;;;;25.10;15.70;;;4.60;96.70;;;;;;5033113;28;20079;-80
2022/03/11 07:39:18;;;;;;;26.52;15.25;;;4.60;96.70;;;;;;5049939;28;20033;-80
2022/03/11 07:41:44;;;;;;;25.90;15.48;;;4.70;96.40;;;;;;5033733;28;20406;-80
2022/03/11 07:44:10;;;;;;;26.00;16.38;;;4.80;96.40;;;;;;5048579;28;20033;-79
2022/03/11 07:46:36;;;;;;;27.27;15.55;;;4.80;96.00;;;;;;5049891;28;20041;-80
2022/03/11 07:49:02;;;;;;;26.65;16.15;;;4.90;95.80;;;;;;5032872;28;20047;-80
2022/03/11 07:51:30;;;;;;;25.17;16.30;;;5.00;95.70;;;;;;5049883;28;20045;-80
2022/03/11 07:53:57;;;;;;;25.33;15.25;;;5.10;95.60;;;;;;5049732;28;20494;-80
2022/03/11 07:56:23;;;;;;;26.70;15.18;;;5.20;95.70;;;;;;5049953;28;20127;-80
2022/03/11 07:58:48;;;;;;;23.75;15.35;;;5.20;95.40;;;;;;5049796;28;20044;-79
2022/03/11 08:01:14;;;;;;;26.95;17.27;;;5.30;95.10;;;;;;5049605;28;20111;-80
2022/03/11 08:03:44;;;;;;;28.38;15.70;;;5.40;94.80;;;;;;5033793;28;20114;-80
2022/03/11 08:06:09;;;;;;;27.48;15.77;;;5.50;94.80;;;;;;5033700;28;20045;-80
2022/03/11 08:08:36;;;;;;;26.38;15.60;;;5.60;94.60;;;;;;5050166;28;20125;-81
2022/03/11 08:11:03;;;;;;;25.05;16.25;;;5.70;94.10;;;;;;5050023;28;20041;-80
2022/03/11 08:13:29;;;;;;;25.27;15.50;;;5.70;94.00;;;;;;5049927;28;20044;-80
2022/03/11 08:15:54;;;;;;;24.48;16.02;;;5.80;93.80;;;;;;5050232;28;20482;-80
2022/03/11 08:18:21;;;;;;;27.55;16.17;;;5.90;93.60;;;;;;5033576;28;20098;-80
2022/03/11 08:20:47;;;;;;;27.40;15.98;;;6.00;93.30;;;;;;5050027;28;20064;-80
2022/03/11 08:23:13;;;;;;;24.88;15.55;;;6.10;93.30;;;;;;5050304;28;20482;-80
2022/03/11 08:25:39;;;;;;;25.52;16.38;;;6.20;92.90;;;;;;5050552;28;20513;-80
2022/03/11 08:28:10;;;;;;;24.95;16.13;;;6.30;92.60;;;;;;5049737;28;20041;-80
2022/03/11 08:30:37;;;;;;;28.58;16.77;;;6.40;92.00;;;;;;5049422;28;20055;-80
2022/03/11 08:33:04;;;;;;;24.73;16.15;;;6.50;91.70;;;;;;5049807;28;20052;-80
2022/03/11 08:35:30;;;;;;;26.35;16.27;;;6.60;91.40;;;;;;5048851;28;20072;-80
2022/03/11 08:37:56;;;;;;;26.10;16.30;;;6.70;90.90;;;;;;5050308;28;20077;-80
2022/03/11 08:40:24;;;;;;;26.33;16.83;;;6.80;90.60;;;;;;5049266;28;20056;-81
2022/03/11 08:42:53;;;;;;;28.00;16.08;;;6.90;90.40;;;;;;5033382;28;20159;-80
2022/03/11 08:45:22;;;;;;;27.98;16.58;;;7.00;90.40;;;;;;5050180;28;20037;-81
2022/03/11 08:47:52;;;;;;;26.35;16.95;;;7.10;89.20;;;;;;5049986;28;20494;-80
2022/03/11 08:50:18;;;;;;;24.80;17.33;;;7.20;88.30;;;;;;5049382;28;20037;-80
2022/03/11 08:52:44;;;;;;;26.60;17.52;;;7.20;88.20;;;;;;5049384;28;20048;-81
2022/03/11 08:55:11;;;;;;;25.00;15.95;;;7.30;88.10;;;;;;5049446;28;20565;-80
2022/03/11 08:57:38;;;;;;;25.08;16.35;;;7.50;87.50;;;;;;5049867;28;20560;-81
2022/03/11 09:00:06;;;;;;;24.63;16.38;;;7.60;87.00;;;;;;5049146;28;20076;-81
2022/03/11 09:02:32;;;;;;;26.02;15.45;;;7.70;86.10;;;;;;5049573;28;20041;-81
2022/03/11 09:04:57;;;;;;;25.38;16.80;;;7.70;84.20;;;;;;5049681;28;20041;-81
2022/03/11 09:07:28;;;;;;;25.42;16.27;;;7.80;83.10;;;;;;5033037;28;20072;-80
2022/03/11 09:09:55;;;;;;;24.52;16.95;;;7.80;82.60;;;;;;5049368;28;20052;-80
2022/03/11 09:12:20;;;;;;;25.77;16.42;;;7.90;81.50;;;;;;5049054;28;20119;-80
2022/03/11 09:14:46;;;;;;;26.50;16.85;;;8.00;81.40;;;;;;5049625;28;20033;-80
2022/03/11 09:17:11;;;;;;;24.67;16.67;;;8.00;80.10;;;;;;5049157;28;20037;-80
2022/03/11 09:19:37;;;;;;;26.52;16.50;;;8.00;79.20;;;;;;5049302;28;20037;-80
2022/03/11 09:22:03;;;;;;;23.77;16.45;;;8.10;79.20;;;;;;5049248;28;20060;-81
2022/03/11 09:24:28;;;;;;;28.23;17.42;;;8.30;79.30;;;;;;5033361;28;20044;-80
2022/03/11 09:26:54;;;;;;;25.55;17.92;;;8.40;78.30;;;;;;5049607;28;20510;-80
2022/03/11 09:29:20;;;;;;;26.48;16.45;;;8.40;78.30;;;;;;5048960;28;20074;-80
2022/03/11 09:31:45;;;;;;;26.27;17.58;;;8.50;77.10;;;;;;5049369;28;20045;-80
2022/03/11 09:34:11;;;;;;;28.15;18.33;;;8.70;77.20;;;;;;5049177;28;20048;-81
2022/03/11 09:36:36;;;;;;;27.45;17.73;;;8.80;76.40;;;;;;5049206;28;20561;-80
2022/03/11 09:39:02;;;;;;;25.48;16.17;;;8.90;76.30;;;;;;5049150;28;20048;-80
2022/03/11 09:41:28;;;;;;;25.98;17.45;;;9.00;75.00;;;;;;5049269;28;20040;-80
2022/03/11 09:43:55;;;;;;;23.73;16.40;;;9.10;74.60;;;;;;5049127;28;20383;-80
2022/03/11 09:46:21;;;;;;;25.08;17.42;;;9.20;73.40;;;;;;5048256;28;20119;-80
2022/03/11 09:48:47;;;;;;;26.27;18.15;;;9.30;73.10;;;;;;5036475;28;20124;-81
2022/03/11 09:51:12;;;;;;;24.17;17.45;;;9.40;72.70;;;;;;5052411;28;20436;-81
2022/03/11 09:53:40;;;;;;;26.33;16.80;;;9.50;72.30;;;;;;5035043;28;20053;-81
2022/03/11 09:56:06;;;;;;;27.23;17.48;;;9.60;71.80;;;;;;5052685;28;20049;-80
2022/03/11 09:58:32;;;;;;;25.02;16.85;;;9.80;70.10;;;;;;5036323;28;20064;-80
2022/03/11 10:00:58;;;;;;;24.33;18.13;;;9.80;68.80;;;;;;5035922;28;20033;-80
2022/03/11 10:03:23;;;;;;;28.52;18.42;;;9.90;68.90;;;;;;5052841;28;20049;-81
2022/03/11 10:05:54;;;;;;;25.67;17.35;;;10.00;68.10;;;;;;5052711;28;20494;-80
2022/03/11 10:08:37;;;;;;;31.60;18.85;;;10.00;66.90;;;;;;5052596;28;20056;-81
2022/03/11 10:11:23;;;;;;;23.67;17.02;;;10.10;67.20;;;;;;5035241;28;20052;-81
2022/03/11 10:14:03;;;;;;;23.08;17.05;;;10.30;65.80;;;;;;5052221;28;20087;-81
2022/03/11 10:16:30;;;;;;;25.20;17.88;;;10.30;66.20;;;;;;5052056;28;20037;-81
2022/03/11 10:19:02;;;;;;;21.88;16.75;;;10.50;65.20;;;;;;5052837;28;20644;-80
2022/03/11 10:21:32;;;;;;;25.13;17.67;;;10.50;64.50;;;;;;5035324;28;20048;-80
2022/03/11 10:23:59;;;;;;;25.60;17.42;;;10.60;64.50;;;;;;5052611;28;20048;-81
2022/03/11 10:26:40;;;;;;;23.45;17.75;;;10.70;64.40;;;;;;5052448;28;20072;-80
2022/03/11 10:29:08;;;;;;;24.30;18.33;;;10.90;64.80;;;;;;5052178;28;20041;-81
2022/03/11 10:31:36;;;;;;;24.65;17.88;;;11.00;63.60;;;;;;5051065;28;20498;-80
2022/03/11 10:34:29;;;;;;;22.63;17.30;;;11.10;62.70;;;;;;5052087;28;20687;-80
2022/03/11 10:36:56;;;;;;;21.15;15.25;;;11.30;61.80;;;;;;5052295;28;20072;-80
2022/03/11 10:39:30;;;;;;;21.23;16.02;;;11.40;62.10;;;;;;5034017;28;20083;-80
2022/03/11 10:42:13;;;;;;;48.05;18.25;;;11.50;61.00;;;;;;5051068;28;20036;-80
2022/03/11 10:44:52;;;;;;;22.35;14.52;;;11.70;60.50;;;;;;5052085;28;20048;-80
2022/03/11 10:47:24;;;;;;;26.23;16.42;;;11.80;59.40;;;;;;5052275;28;20517;-80
2022/03/11 10:49:51;;;;;;;20.27;15.40;;;12.00;58.10;;;;;;5051234;28;20049;-81
2022/03/11 10:52:30;;;;;;;24.15;16.05;;;12.10;57.00;;;;;;5051961;28;20082;-80
2022/03/11 10:54:57;;;;;;;22.08;16.17;;;12.20;55.30;;;;;;5049090;28;20124;-80
2022/03/11 10:57:37;;;;;;;21.73;16.45;;;12.20;55.10;;;;;;5050625;28;20041;-77
2022/03/11 11:00:36;;;;;;;23.35;16.05;;;12.30;54.00;;;;;;5050233;28;20048;-80
2022/03/11 11:03:03;;;;;;;21.42;15.90;;;12.40;53.70;;;;;;4974889;28;20108;-79
2022/03/11 11:05:30;;;;;;;21.02;15.77;;;12.50;54.30;;;;;;4974943;28;20050;-80
2022/03/11 11:07:57;;;;;;;21.42;15.85;;;12.60;53.00;;;;;;4959690;28;20064;-79
2022/03/11 11:10:25;;;;;;;22.50;16.90;;;12.70;52.60;;;;;;4991399;28;20050;-79
2022/03/11 11:12:51;;;;;;;20.65;16.38;;;12.80;51.70;;;;;;4975234;28;20460;-79
2022/03/11 11:15:18;;;;;;;20.58;15.88;;;12.80;51.60;;;;;;4974875;28;20038;-80
2022/03/11 11:17:45;;;;;;;21.38;16.15;;;12.90;51.00;;;;;;4974759;28;20634;-80
2022/03/11 11:20:23;;;;;;;20.80;16.05;;;13.00;50.80;;;;;;4974470;28;20085;-80
2022/03/11 11:22:51;;;;;;;20.00;15.93;;;13.20;50.70;;;;;;4958332;28;20061;-80
2022/03/11 11:25:22;;;;;;;21.10;16.27;;;13.20;50.10;;;;;;4958636;28;20050;-81
2022/03/11 11:27:49;;;;;;;19.60;16.02;;;13.30;49.20;;;;;;4958645;28;20081;-80
2022/03/11 11:30:20;;;;;;;20.67;15.90;;;13.40;49.00;;;;;;4974464;28;20082;-80
2022/03/11 11:32:48;;;;;;;20.48;16.13;;;13.50;48.50;;;;;;4958208;28;20054;-81
2022/03/11 11:35:26;;;;;;;68.35;19.70;;;13.70;49.00;;;;;;4974381;28;20042;-81
2022/03/11 11:37:53;;;;;;;27.65;15.90;;;13.80;48.30;;;;;;4986927;28;20132;-80
2022/03/11 11:40:24;;;;;;;21.85;16.83;;;13.80;48.20;;;;;;5050870;28;20044;-80
2022/03/11 11:43:14;;;;;;;19.25;16.00;;;14.00;48.20;;;;;;5049790;28;20048;-80
2022/03/11 11:45:51;;;;;;;21.63;16.48;;;14.10;47.20;;;;;;5051228;28;20045;-81
2022/03/11 11:48:41;;;;;;;20.10;16.45;;;14.20;46.80;;;;;;5062149;28;20079;-81
2022/03/11 11:51:09;;;;;;;20.38;16.13;;;14.30;46.70;;;;;;5053285;28;20521;-81
2022/03/11 11:53:42;;;;;;;21.92;16.15;;;14.30;46.70;;;;;;5033789;28;20522;-80
2022/03/11 11:57:00;;;;;;;20.17;16.20;;;14.30;46.60;;;;;;5050055;28;20080;-80
2022/03/11 11:59:29;;;;;;;19.63;15.45;;;14.50;46.30;;;;;;4973839;28;20046;-80
2022/03/11 12:01:59;;;;;;;18.88;15.52;;;14.50;46.30;;;;;;4973108;28;20121;-81
2022/03/11 12:04:35;;;;;;;18.08;15.52;;;14.50;45.70;;;;;;4989937;28;20637;-81
2022/03/11 12:07:14;;;;;;;17.73;14.90;;;14.60;45.20;;;;;;4956717;28;20128;-81
2022/03/11 12:09:42;;;;;;;18.88;15.00;;;14.80;45.40;;;;;;4972812;28;20539;-81
2022/03/11 12:12:26;;;;;;;18.23;14.95;;;14.80;45.00;;;;;;4972704;28;20137;-81
2022/03/11 12:15:01;;;;;;;17.17;14.15;;;14.90;45.40;;;;;;4956854;28;20533;-81
2022/03/11 12:17:52;;;;;;;19.15;15.13;;;15.00;44.60;;;;;;4973965;28;20093;-81
2022/03/11 12:20:34;;;;;;;18.90;15.30;;;15.10;44.10;;;;;;4973535;28;20046;-81
2022/03/11 12:23:06;;;;;;;18.95;15.05;;;15.20;44.30;;;;;;4989694;28;20069;-81
2022/03/11 12:25:39;;;;;;;18.42;13.68;;;15.40;45.10;;;;;;4989717;28;20042;-81
2022/03/11 12:28:33;;;;;;;19.10;14.93;;;15.70;44.70;;;;;;4990060;28;20042;-81
2022/03/11 12:31:00;;;;;;;17.65;14.05;;;15.90;43.30;;;;;;4971802;28;20053;-81
2022/03/11 12:33:54;;;;;;;19.02;15.02;;;16.20;43.80;;;;;;4973530;28;20508;-81
2022/03/11 12:36:22;;;;;;;15.88;13.50;;;16.30;42.10;;;;;;5024049;28;20045;-81
2022/03/11 12:38:49;;;;;;;20.15;14.68;;;16.40;41.90;;;;;;5050346;28;20045;-81